createdAt,value
2018-09-10T00:02:00.414Z,16.80
2018-09-10T00:04:34.449Z,16.90
2018-09-10T00:07:08.758Z,16.80
2018-09-10T00:09:42.894Z,16.70
2018-09-10T00:12:16.923Z,16.70
2018-09-10T00:14:51.891Z,16.70
2018-09-10T00:17:26.628Z,16.60
2018-09-10T00:20:00.781Z,16.60
2018-09-10T00:22:34.796Z,16.60
2018-09-10T00:25:09.534Z,16.50
2018-09-10T00:27:43.626Z,16.50
2018-09-10T00:30:17.764Z,16.50
2018-09-10T00:32:51.686Z,16.50
2018-09-10T00:35:25.902Z,16.50
2018-09-10T00:38:00.090Z,16.50
2018-09-10T00:40:34.309Z,16.40
2018-09-10T00:43:08.470Z,16.20
2018-09-10T00:45:42.597Z,15.00
2018-09-10T00:48:16.863Z,15.00
2018-09-10T00:50:50.989Z,15.40
2018-09-10T00:53:25.101Z,15.70
2018-09-10T00:55:59.261Z,15.60
2018-09-10T00:58:33.210Z,15.70
2018-09-10T01:01:07.280Z,15.80
2018-09-10T01:03:41.328Z,15.80
2018-09-10T01:06:15.298Z,15.90
2018-09-10T01:08:49.344Z,15.90
2018-09-10T01:11:23.333Z,15.90
2018-09-10T01:13:57.366Z,15.90
2018-09-10T01:16:31.301Z,15.80
2018-09-10T01:19:06.008Z,15.80
2018-09-10T01:21:40.145Z,15.80
2018-09-10T01:24:14.214Z,15.80
2018-09-10T01:26:48.377Z,15.80
2018-09-10T01:29:22.544Z,15.80
2018-09-10T01:31:56.583Z,15.70
2018-09-10T01:34:30.598Z,15.70
2018-09-10T01:37:04.686Z,15.60
2018-09-10T01:39:38.622Z,15.70
2018-09-10T01:42:12.685Z,15.60
2018-09-10T01:44:46.850Z,15.60
2018-09-10T01:47:20.999Z,15.60
2018-09-10T01:49:54.938Z,15.50
2018-09-10T01:52:29.070Z,15.50
2018-09-10T01:55:03.915Z,15.40
2018-09-10T01:57:38.733Z,15.40
2018-09-10T02:00:13.588Z,15.40
2018-09-10T02:02:47.679Z,15.40
2018-09-10T02:05:21.825Z,15.40
2018-09-10T02:07:55.969Z,15.30
2018-09-10T02:10:30.113Z,15.20
2018-09-10T02:13:04.283Z,15.20
2018-09-10T02:15:38.257Z,15.10
2018-09-10T02:18:12.367Z,15.10
2018-09-10T02:20:46.365Z,14.90
2018-09-10T02:23:20.336Z,15.00
2018-09-10T02:25:54.475Z,15.10
2018-09-10T02:28:28.498Z,14.80
2018-09-10T02:31:02.505Z,14.80
2018-09-10T02:33:37.245Z,14.60
2018-09-10T02:36:11.362Z,14.60
2018-09-10T02:38:46.092Z,14.60
2018-09-10T02:41:20.205Z,14.50
2018-09-10T02:43:54.377Z,14.60
2018-09-10T02:46:28.553Z,14.70
2018-09-10T02:49:02.658Z,14.70
2018-09-10T02:51:40.545Z,14.70
2018-09-10T02:54:14.468Z,14.60
2018-09-10T02:56:48.305Z,14.60
2018-09-10T02:59:22.297Z,14.70
2018-09-10T03:01:56.286Z,14.70
2018-09-10T03:04:30.429Z,14.70
2018-09-10T03:07:04.562Z,14.60
2018-09-10T03:09:38.637Z,14.70
2018-09-10T03:12:12.757Z,14.70
2018-09-10T03:14:47.599Z,14.70
2018-09-10T03:17:21.496Z,14.70
2018-09-10T03:19:55.551Z,14.70
2018-09-10T03:22:29.633Z,14.60
2018-09-10T03:25:03.749Z,14.60
2018-09-10T03:27:37.811Z,14.60
2018-09-10T03:30:11.926Z,14.60
2018-09-10T03:32:45.904Z,14.60
2018-09-10T03:35:20.032Z,14.60
2018-09-10T03:37:54.765Z,14.50
2018-09-10T03:40:28.845Z,14.50
2018-09-10T03:43:02.963Z,14.50
2018-09-10T03:45:37.193Z,14.50
2018-09-10T03:48:11.350Z,14.40
2018-09-10T03:50:45.421Z,14.20
2018-09-10T03:53:19.539Z,14.10
2018-09-10T03:55:53.654Z,14.10
2018-09-10T03:58:27.670Z,14.20
2018-09-10T04:01:01.575Z,14.20
2018-09-10T04:03:36.297Z,14.30
2018-09-10T04:06:10.409Z,14.30
2018-09-10T04:08:45.123Z,14.30
2018-09-10T04:11:19.185Z,14.30
2018-09-10T04:13:53.386Z,14.30
2018-09-10T04:16:27.396Z,14.30
2018-09-10T04:19:01.526Z,14.20
2018-09-10T04:21:36.439Z,14.10
2018-09-10T04:24:10.554Z,14.00
2018-09-10T04:26:44.478Z,14.00
2018-09-10T04:29:18.544Z,14.10
2018-09-10T04:31:52.561Z,14.00
2018-09-10T04:34:26.702Z,14.10
2018-09-10T04:37:00.699Z,14.00
2018-09-10T04:39:34.829Z,14.00
2018-09-10T04:42:08.975Z,14.00
2018-09-10T04:44:43.176Z,14.00
2018-09-10T04:47:17.366Z,14.00
2018-09-10T04:49:51.585Z,13.90
2018-09-10T04:52:25.655Z,13.90
2018-09-10T04:54:59.783Z,13.90
2018-09-10T04:57:33.909Z,13.80
2018-09-10T05:00:08.042Z,13.90
2018-09-10T05:02:42.137Z,13.90
2018-09-10T05:05:16.244Z,14.00
2018-09-10T05:07:50.381Z,14.00
2018-09-10T05:10:24.599Z,14.00
2018-09-10T05:12:58.661Z,14.00
2018-09-10T05:15:32.674Z,14.10
2018-09-10T05:18:06.723Z,14.00
2018-09-10T05:20:40.825Z,14.10
2018-09-10T05:23:14.821Z,14.20
2018-09-10T05:25:48.710Z,14.20
2018-09-10T05:28:22.855Z,14.10
2018-09-10T05:30:56.992Z,13.60
2018-09-10T05:33:31.114Z,13.70
2018-09-10T05:36:05.934Z,13.70
2018-09-10T05:38:40.018Z,13.70
2018-09-10T05:41:14.083Z,13.70
2018-09-10T05:43:48.190Z,14.00
2018-09-10T05:46:23.107Z,14.10
2018-09-10T05:48:57.223Z,14.10
2018-09-10T05:51:31.327Z,14.20
2018-09-10T05:54:05.440Z,14.30
2018-09-10T05:56:39.366Z,14.50
2018-09-10T05:59:13.481Z,14.30
2018-09-10T06:01:47.572Z,14.60
2018-09-10T06:04:22.414Z,15.00
2018-09-10T06:06:56.524Z,15.00
2018-09-10T06:09:30.570Z,15.20
2018-09-10T06:12:04.707Z,15.00
2018-09-10T06:14:38.864Z,15.00
2018-09-10T06:17:12.807Z,15.30
2018-09-10T06:19:46.772Z,15.30
2018-09-10T06:22:20.830Z,15.30
2018-09-10T06:24:55.581Z,15.00
2018-09-10T06:27:30.350Z,14.90
2018-09-10T06:30:04.433Z,14.90
2018-09-10T06:32:38.637Z,14.90
2018-09-10T06:35:12.593Z,14.90
2018-09-10T06:37:46.677Z,15.00
2018-09-10T06:40:20.822Z,15.30
2018-09-10T06:42:54.832Z,15.10
2018-09-10T06:45:28.749Z,15.30
2018-09-10T06:48:02.862Z,15.20
2018-09-10T06:50:36.828Z,15.20
2018-09-10T06:53:10.737Z,15.20
2018-09-10T06:55:44.897Z,15.40
2018-09-10T06:58:18.813Z,15.50
2018-09-10T07:00:52.934Z,15.70
2018-09-10T07:03:27.018Z,15.70
2018-09-10T07:06:01.049Z,15.80
2018-09-10T07:08:35.887Z,16.20
2018-09-10T07:11:09.877Z,16.20
2018-09-10T07:13:44.108Z,16.40
2018-09-10T07:16:18.181Z,16.60
2018-09-10T07:18:52.424Z,16.50
2018-09-10T07:21:26.409Z,16.60
2018-09-10T07:24:00.549Z,16.40
2018-09-10T07:26:34.664Z,16.50
2018-09-10T07:29:08.602Z,16.60
2018-09-10T07:31:42.815Z,16.90
2018-09-10T07:34:16.906Z,16.90
2018-09-10T07:36:51.030Z,17.00
2018-09-10T07:39:25.056Z,17.30
2018-09-10T07:41:59.101Z,17.30
2018-09-10T07:44:33.255Z,17.40
2018-09-10T07:47:07.997Z,17.50
2018-09-10T07:49:42.919Z,17.70
2018-09-10T07:52:16.790Z,17.80
2018-09-10T07:54:50.940Z,17.80
2018-09-10T07:57:24.911Z,17.90
2018-09-10T07:59:58.888Z,18.30
2018-09-10T08:02:33.075Z,18.80
2018-09-10T08:05:07.211Z,18.90
2018-09-10T08:07:41.390Z,19.10
2018-09-10T08:10:15.501Z,19.20
2018-09-10T08:12:49.542Z,19.30
2018-09-10T08:15:23.651Z,19.50
2018-09-10T08:17:57.794Z,19.50
2018-09-10T08:20:31.902Z,19.50
2018-09-10T08:23:06.007Z,19.50
2018-09-10T08:25:40.061Z,19.70
2018-09-10T08:28:14.175Z,19.80
2018-09-10T08:30:48.298Z,20.10
2018-09-10T08:33:22.409Z,20.50
2018-09-10T08:35:56.536Z,20.80
2018-09-10T08:38:30.586Z,21.20
2018-09-10T08:41:04.663Z,21.20
2018-09-10T08:43:38.775Z,21.50
2018-09-10T08:46:12.896Z,21.40
2018-09-10T08:48:46.949Z,21.30
2018-09-10T08:51:20.893Z,21.80
2018-09-10T08:53:54.906Z,21.90
2018-09-10T08:56:29.791Z,22.30
2018-09-10T08:59:03.999Z,22.30
2018-09-10T09:01:38.102Z,22.40
2018-09-10T09:04:12.014Z,22.30
2018-09-10T09:06:46.806Z,22.10
2018-09-10T09:09:21.726Z,22.00
2018-09-10T09:11:56.487Z,22.10
2018-09-10T09:14:30.594Z,22.00
2018-09-10T09:17:04.733Z,22.00
2018-09-10T09:19:38.913Z,22.10
2018-09-10T09:22:13.757Z,22.10
2018-09-10T09:24:48.453Z,22.50
2018-09-10T09:27:22.574Z,22.50
2018-09-10T09:29:56.644Z,22.30
2018-09-10T09:32:30.746Z,22.40
2018-09-10T09:35:05.573Z,22.30
2018-09-10T09:37:39.687Z,22.30
2018-09-10T09:40:14.485Z,22.20
2018-09-10T09:42:49.250Z,22.20
2018-09-10T09:45:23.366Z,22.20
2018-09-10T09:47:58.400Z,22.40
2018-09-10T09:50:32.358Z,22.30
2018-09-10T09:53:06.531Z,22.30
2018-09-10T09:55:40.596Z,22.30
2018-09-10T09:58:14.723Z,22.80
2018-09-10T10:00:48.878Z,23.30
2018-09-10T10:03:22.962Z,23.50
2018-09-10T10:05:57.125Z,23.00
2018-09-10T10:08:31.123Z,23.40
2018-09-10T10:11:05.324Z,23.80
2018-09-10T10:13:39.542Z,23.40
2018-09-10T10:16:13.776Z,23.70
2018-09-10T10:18:47.824Z,23.60
2018-09-10T10:21:21.941Z,23.60
2018-09-10T10:23:56.065Z,23.70
2018-09-10T10:26:30.998Z,24.00
2018-09-10T10:29:05.025Z,24.00
2018-09-10T10:31:39.726Z,24.40
2018-09-10T10:34:13.858Z,24.30
2018-09-10T10:36:47.763Z,24.70
2018-09-10T10:39:21.941Z,24.40
2018-09-10T10:41:55.992Z,24.60
2018-09-10T10:44:30.063Z,24.70
2018-09-10T10:47:04.301Z,24.90
2018-09-10T10:49:38.313Z,24.70
2018-09-10T10:52:12.238Z,24.30
2018-09-10T10:54:46.326Z,24.20
2018-09-10T10:57:20.424Z,24.30
2018-09-10T10:59:55.251Z,25.00
2018-09-10T11:02:29.989Z,25.00
2018-09-10T11:05:12.777Z,25.20
2018-09-10T11:07:46.830Z,25.10
2018-09-10T11:10:20.920Z,25.00
2018-09-10T11:12:55.761Z,24.90
2018-09-10T11:15:30.393Z,24.60
2018-09-10T11:18:04.305Z,24.60
2018-09-10T11:20:38.198Z,24.80
2018-09-10T11:23:12.214Z,25.00
2018-09-10T11:25:46.253Z,24.80
2018-09-10T11:28:20.249Z,24.70
2018-09-10T11:30:54.323Z,25.00
2018-09-10T11:33:29.276Z,25.30
2018-09-10T11:36:03.174Z,25.30
2018-09-10T11:38:37.194Z,25.30
2018-09-10T11:41:11.175Z,25.50
2018-09-10T11:43:45.216Z,25.50
2018-09-10T11:46:19.246Z,25.40
2018-09-10T11:48:53.226Z,25.70
2018-09-10T11:51:27.257Z,25.60
2018-09-10T11:54:01.345Z,25.60
2018-09-10T11:56:35.465Z,25.70
2018-09-10T11:59:09.476Z,25.60
2018-09-10T12:01:43.546Z,25.60
2018-09-10T12:04:17.494Z,25.50
2018-09-10T12:06:51.506Z,25.60
2018-09-10T12:09:25.555Z,25.90
2018-09-10T12:11:59.554Z,25.70
2018-09-10T12:14:33.570Z,25.70
2018-09-10T12:17:07.685Z,25.70
2018-09-10T12:19:41.614Z,25.60
2018-09-10T12:22:15.567Z,25.80
2018-09-10T12:24:49.620Z,26.10
2018-09-10T12:27:23.657Z,26.10
2018-09-10T12:29:57.666Z,26.10
2018-09-10T12:32:31.720Z,26.50
2018-09-10T12:35:05.817Z,26.80
2018-09-10T12:37:39.922Z,26.80
2018-09-10T12:40:14.034Z,27.20
2018-09-10T12:42:48.094Z,27.00
2018-09-10T12:45:22.178Z,27.10
2018-09-10T12:47:56.106Z,27.20
2018-09-10T12:50:30.155Z,27.10
2018-09-10T12:53:04.088Z,27.20
2018-09-10T12:55:38.138Z,27.80
2018-09-10T12:58:13.028Z,28.40
2018-09-10T13:00:47.059Z,28.40
2018-09-10T13:03:21.157Z,28.20
2018-09-10T13:05:55.205Z,28.10
2018-09-10T13:08:29.338Z,28.10
2018-09-10T13:11:03.349Z,27.80
2018-09-10T13:13:37.444Z,28.20
2018-09-10T13:16:12.163Z,28.40
2018-09-10T13:18:46.269Z,28.40
2018-09-10T13:21:20.231Z,28.60
2018-09-10T13:23:54.264Z,28.50
2018-09-10T13:26:28.350Z,28.60
2018-09-10T13:29:03.207Z,28.50
2018-09-10T13:31:38.013Z,28.90
2018-09-10T13:34:12.019Z,28.90
2018-09-10T13:36:46.206Z,28.70
2018-09-10T13:39:20.166Z,28.90
2018-09-10T13:41:54.267Z,29.00
2018-09-10T13:44:28.372Z,29.30
2018-09-10T13:47:02.467Z,29.10
2018-09-10T13:49:36.506Z,28.90
2018-09-10T13:52:10.623Z,28.40
2018-09-10T13:54:44.733Z,28.50
2018-09-10T13:57:18.858Z,28.80
2018-09-10T13:59:53.347Z,28.70
2018-09-10T14:02:27.310Z,28.60
2018-09-10T14:05:01.292Z,28.90
2018-09-10T14:07:35.404Z,28.80
2018-09-10T14:10:09.521Z,28.80
2018-09-10T14:12:43.621Z,29.00
2018-09-10T14:15:17.822Z,29.50
2018-09-10T14:17:52.705Z,30.20
2018-09-10T14:20:28.021Z,29.90
2018-09-10T14:23:02.742Z,29.90
2018-09-10T14:25:36.871Z,30.00
2018-09-10T14:28:11.978Z,30.10
2018-09-10T14:30:46.854Z,30.10
2018-09-10T14:33:21.651Z,30.10
2018-09-10T14:35:56.086Z,30.40
2018-09-10T14:38:30.077Z,30.90
2018-09-10T14:41:04.950Z,30.70
2018-09-10T14:43:38.910Z,30.60
2018-09-10T14:46:13.600Z,30.30
2018-09-10T14:48:47.757Z,30.30
2018-09-10T14:51:22.610Z,30.10
2018-09-10T14:53:57.446Z,30.10
2018-09-10T14:56:31.921Z,29.60
2018-09-10T14:59:06.131Z,29.70
2018-09-10T15:01:41.199Z,29.10
2018-09-10T15:04:15.259Z,29.20
2018-09-10T15:06:49.246Z,29.60
2018-09-10T15:09:23.354Z,29.30
2018-09-10T15:11:58.321Z,29.00
2018-09-10T15:14:32.443Z,29.00
2018-09-10T15:17:06.551Z,29.00
2018-09-10T15:19:40.610Z,29.20
2018-09-10T15:22:14.725Z,29.10
2018-09-10T15:24:48.834Z,29.10
2018-09-10T15:27:22.886Z,29.00
2018-09-10T15:29:57.002Z,29.10
2018-09-10T15:32:31.114Z,29.40
2018-09-10T15:38:18.137Z,28.90
2018-09-10T15:40:52.221Z,28.90
2018-09-10T15:43:26.274Z,28.80
2018-09-10T15:46:01.066Z,28.50
2018-09-10T15:48:34.995Z,28.50
2018-09-10T15:51:09.110Z,28.50
2018-09-10T15:53:43.210Z,28.50
2018-09-10T15:56:17.373Z,28.60
2018-09-10T15:58:52.880Z,28.50
2018-09-10T16:01:28.495Z,28.50
2018-09-10T16:04:05.606Z,28.50
2018-09-10T16:06:40.439Z,28.30
2018-09-10T16:09:14.659Z,28.30
2018-09-10T16:11:49.484Z,28.00
2018-09-10T16:14:36.598Z,27.90
2018-09-10T16:17:10.653Z,27.90
2018-09-10T16:19:49.410Z,27.80
2018-09-10T16:22:23.556Z,27.60
2018-09-10T16:24:57.494Z,27.50
2018-09-10T16:31:20.480Z,27.40
2018-09-10T16:33:54.698Z,27.40
2018-09-10T16:36:34.816Z,27.30
2018-09-10T16:39:08.743Z,27.30
2018-09-10T16:44:47.678Z,27.10
2018-09-10T16:47:25.462Z,27.30
2018-09-10T16:55:29.228Z,27.30
2018-09-10T16:58:03.184Z,27.10
2018-09-10T17:00:39.412Z,27.10
2018-09-10T17:06:33.518Z,26.90
2018-09-10T17:09:07.458Z,26.90
2018-09-10T17:11:41.478Z,26.80
2018-09-10T17:14:15.495Z,26.70
2018-09-10T17:16:49.535Z,26.60
2018-09-10T17:19:23.598Z,26.50
2018-09-10T17:21:57.618Z,26.50
2018-09-10T17:24:31.687Z,26.50
2018-09-10T17:27:05.948Z,26.40
2018-09-10T17:29:40.194Z,26.30
2018-09-10T17:32:14.387Z,26.20
2018-09-10T17:34:51.653Z,26.20
2018-09-10T17:37:25.745Z,26.10
2018-09-10T17:40:03.106Z,26.10
2018-09-10T17:42:36.958Z,26.00
2018-09-10T17:45:11.989Z,25.80
2018-09-10T17:47:45.866Z,25.80
2018-09-10T17:50:19.985Z,25.70
2018-09-10T17:52:54.093Z,25.60
2018-09-10T17:55:28.161Z,25.30
2018-09-10T17:58:03.296Z,25.40
2018-09-10T18:00:37.776Z,25.30
2018-09-10T18:03:12.715Z,25.00
2018-09-10T18:05:46.758Z,24.90
2018-09-10T18:08:20.852Z,24.80
2018-09-10T18:10:54.963Z,24.70
2018-09-10T18:13:29.027Z,24.70
2018-09-10T18:16:03.188Z,24.70
2018-09-10T18:18:37.277Z,24.60
2018-09-10T18:21:11.657Z,24.70
2018-09-10T18:23:45.627Z,24.60
2018-09-10T18:26:19.755Z,24.60
2018-09-10T18:28:53.780Z,24.70
2018-09-10T18:31:28.298Z,24.50
2018-09-10T18:34:02.357Z,24.50
2018-09-10T18:36:36.462Z,24.50
2018-09-10T18:39:10.535Z,24.50
2018-09-10T18:41:44.850Z,24.50
2018-09-10T18:44:19.354Z,24.50
2018-09-10T18:46:53.363Z,24.50
2018-09-10T18:49:27.840Z,24.50
2018-09-10T18:52:02.646Z,24.50
2018-09-10T18:54:36.671Z,24.40
2018-09-10T18:57:10.703Z,24.50
2018-09-10T18:59:44.747Z,24.40
2018-09-10T19:02:18.821Z,24.30
2018-09-10T19:04:52.883Z,24.30
2018-09-10T19:07:28.702Z,24.20
2018-09-10T19:10:03.768Z,24.00
2018-09-10T19:12:49.277Z,23.80
2018-09-10T19:15:23.300Z,23.70
2018-09-10T19:17:57.470Z,23.80
2018-09-10T19:20:32.322Z,23.60
2018-09-10T19:23:06.317Z,23.50
2018-09-10T19:25:40.525Z,23.60
2018-09-10T19:28:15.259Z,23.50
2018-09-10T19:30:49.393Z,23.40
2018-09-10T19:33:23.502Z,23.40
2018-09-10T19:35:57.498Z,23.30
2018-09-10T19:38:31.473Z,23.20
2018-09-10T19:41:05.539Z,23.20
2018-09-10T19:43:40.351Z,23.00
2018-09-10T19:46:14.430Z,23.00
2018-09-10T19:48:48.499Z,23.00
2018-09-10T19:51:22.645Z,22.90
2018-09-10T19:53:56.709Z,22.90
2018-09-10T19:56:30.794Z,22.90
2018-09-10T19:59:05.731Z,22.90
2018-09-10T20:01:39.675Z,22.80
2018-09-10T20:04:15.041Z,22.70
2018-09-10T20:06:50.750Z,22.60
2018-09-10T20:09:24.859Z,22.50
2018-09-10T20:11:58.950Z,22.40
2018-09-10T20:14:34.742Z,22.40
2018-09-10T20:17:11.032Z,22.30
2018-09-10T20:19:46.468Z,22.40
2018-09-10T20:22:21.822Z,22.20
2018-09-10T20:25:02.257Z,22.20
2018-09-10T20:27:36.159Z,22.20
2018-09-10T20:30:10.068Z,22.20
2018-09-10T20:32:44.073Z,22.30
2018-09-10T20:35:18.138Z,22.40
2018-09-10T20:37:52.286Z,22.50
2018-09-10T20:40:26.379Z,22.50
2018-09-10T20:43:00.426Z,22.50
2018-09-10T20:45:34.584Z,22.70
2018-09-10T20:48:08.514Z,22.60
2018-09-10T20:50:43.354Z,22.20
2018-09-10T20:53:17.437Z,22.20
2018-09-10T20:55:52.270Z,22.60
2018-09-10T20:58:26.429Z,22.50
2018-09-10T21:01:00.507Z,22.50
2018-09-10T21:03:35.240Z,22.40
2018-09-10T21:06:09.235Z,22.30
2018-09-10T21:08:43.289Z,22.40
2018-09-10T21:11:17.358Z,22.20
2018-09-10T21:13:51.450Z,22.40
2018-09-10T21:16:25.470Z,22.20
2018-09-10T21:18:59.509Z,21.90
2018-09-10T21:21:33.477Z,21.60
2018-09-10T21:24:20.442Z,21.70
2018-09-10T21:26:55.165Z,21.70
2018-09-10T21:29:29.285Z,21.70
2018-09-10T21:32:04.130Z,21.40
2018-09-10T21:34:38.304Z,21.40
2018-09-10T21:37:12.953Z,21.60
2018-09-10T21:39:47.017Z,21.60
2018-09-10T21:42:21.101Z,21.70
2018-09-10T21:44:55.145Z,21.60
2018-09-10T21:47:30.062Z,21.70
2018-09-10T21:50:04.131Z,21.60
2018-09-10T21:52:38.197Z,21.60
2018-09-10T21:55:12.258Z,21.60
2018-09-10T21:57:47.129Z,21.40
2018-09-10T22:00:21.282Z,21.40
2018-09-10T22:02:55.341Z,21.40
2018-09-10T22:05:30.150Z,21.40
2018-09-10T22:08:04.273Z,21.40
2018-09-10T22:10:38.365Z,21.30
2018-09-10T22:13:13.037Z,21.10
2018-09-10T22:15:46.958Z,21.10
2018-09-10T22:18:20.974Z,21.00
2018-09-10T22:20:55.789Z,20.60
2018-09-10T22:23:30.202Z,20.60
2018-09-10T22:26:05.077Z,20.80
2018-09-10T22:28:39.245Z,20.80
2018-09-10T22:31:13.401Z,20.80
2018-09-10T22:33:48.740Z,20.80
2018-09-10T22:36:22.929Z,20.80
2018-09-10T22:38:56.908Z,20.70
2018-09-10T22:41:31.841Z,20.60
2018-09-10T22:44:05.877Z,20.60
2018-09-10T22:46:39.962Z,20.70
2018-09-10T22:49:14.015Z,20.70
2018-09-10T22:51:48.170Z,20.70
2018-09-10T22:54:22.271Z,20.30
2018-09-10T22:56:56.302Z,19.70
2018-09-10T22:59:30.361Z,19.90
2018-09-10T23:02:04.427Z,20.00
2018-09-10T23:04:39.205Z,20.20
2018-09-10T23:07:13.294Z,20.10
2018-09-10T23:09:47.332Z,20.20
2018-09-10T23:12:21.401Z,20.20
2018-09-10T23:14:55.521Z,20.30
2018-09-10T23:17:29.651Z,20.30
2018-09-10T23:20:03.738Z,20.20
2018-09-10T23:22:38.597Z,20.10
2018-09-10T23:25:13.418Z,20.00
2018-09-10T23:27:47.570Z,20.00
2018-09-10T23:30:21.568Z,19.90
2018-09-10T23:32:55.647Z,20.00
2018-09-10T23:35:29.682Z,19.90
2018-09-10T23:38:04.619Z,19.80
2018-09-10T23:40:39.445Z,19.80
2018-09-10T23:43:13.623Z,19.80
2018-09-10T23:45:47.630Z,19.80
2018-09-10T23:48:21.716Z,19.70
2018-09-10T23:50:56.522Z,19.70
2018-09-10T23:53:30.598Z,19.60
2018-09-10T23:56:04.732Z,19.60
2018-09-10T23:58:38.886Z,19.60
